FK-0036 weather

Pebble Island Beach Airstrip
Pebble Island, Falkland Islands

Public forecast

Using degrees Celsius for public forecast. Weather courtesy of forecast.io.

METAR (pilot weather report)

Closest report is Mount Pleasant Airport, 51.8 nm (96.0 km) SE. Retrieved 2019/09/15 08:50 UTC (23 minutes ago):

EGYP 150850Z 34004KT CAVOK 02/01 Q0993

TAF (pilot weather forecast)

Closest forecast is Mount Pleasant Airport, 51.8 nm (96.0 km) SE. Retrieved 2019/09/15 09:56 UTC (0 seconds ago):

TAF EGYP 150752Z 1509/1603 VRB03KT 9999 FEW045 PROB30 TEMPO 1509/1512 3000 BR SCT004 PROB40 TEMPO 1518/1603 SCT010 BKN018 PROB30 TEMPO 1521/1603 22015G25KT 3000 SHRASN SCT006 BKN012